Terminal Aerodrome Forecast
Issued by NWS

Home | Current Version | Previous Version | Graphics & Text | Print | Product List | Glossary On
Versions: 1 2 3 4 5 6 7 8 9 10 11 12 13 14 15 16 17 18 19 20 21 22
000
FTUS43 KGRB 050535
TAFATW
TAF
KATW 050535Z 0506/0606 23009KT P6SM SCT009 OVC018
      TEMPO 0506/0508 4SM -FZDZSN BR OVC009
     FM051400 22007KT P6SM SCT012 BKN250
     FM052000 18010KT P6SM BKN080
     FM060300 16008KT P6SM BKN150 WS015/20035KT=

USA.gov is the U.S. government's official web portal to all federal, state and local government web resources and services.